sensor_id;sensor_type;location;lat;lon;timestamp;pressure;altitude;pressure_sealevel;temperature;humidity
20079;BME280;10199;48.850;8.924;2024-03-17T00:01:11;97962.16;;;5.63;100.00
20079;BME280;10199;48.850;8.924;2024-03-17T00:03:39;97866.94;;;4.87;100.00
20079;BME280;10199;48.850;8.924;2024-03-17T00:06:06;97958.34;;;5.38;100.00
20079;BME280;10199;48.850;8.924;2024-03-17T00:08:34;97961.94;;;5.47;100.00
20079;BME280;10199;48.850;8.924;2024-03-17T00:11:00;97894.75;;;5.07;100.00
20079;BME280;10199;48.850;8.924;2024-03-17T00:13:27;97954.53;;;5.23;100.00
20079;BME280;10199;48.850;8.924;2024-03-17T00:15:53;97807.81;;;4.56;100.00
20079;BME280;10199;48.850;8.924;2024-03-17T00:18:20;97949.25;;;5.33;100.00
20079;BME280;10199;48.850;8.924;2024-03-17T00:20:46;97953.00;;;5.30;100.00
20079;BME280;10199;48.850;8.924;2024-03-17T00:23:15;97946.06;;;5.39;100.00
20079;BME280;10199;48.850;8.924;2024-03-17T00:25:41;97826.03;;;4.47;100.00
20079;BME280;10199;48.850;8.924;2024-03-17T00:28:09;97948.69;;;5.20;100.00
20079;BME280;10199;48.850;8.924;2024-03-17T00:30:35;97949.25;;;5.13;100.00
20079;BME280;10199;48.850;8.924;2024-03-17T00:33:02;97950.38;;;5.11;100.00
20079;BME280;10199;48.850;8.924;2024-03-17T00:35:29;97951.75;;;5.15;100.00
20079;BME280;10199;48.850;8.924;2024-03-17T00:37:56;97949.81;;;4.98;100.00
20079;BME280;10199;48.850;8.924;2024-03-17T00:40:23;97945.81;;;5.23;100.00
20079;BME280;10199;48.850;8.924;2024-03-17T00:42:50;97939.91;;;5.21;100.00
20079;BME280;10199;48.850;8.924;2024-03-17T00:45:17;97929.94;;;5.05;100.00
20079;BME280;10199;48.850;8.924;2024-03-17T00:47:44;97807.25;;;4.33;100.00
20079;BME280;10199;48.850;8.924;2024-03-17T00:50:10;97937.25;;;5.11;100.00
20079;BME280;10199;48.850;8.924;2024-03-17T00:52:38;97928.72;;;4.99;100.00
20079;BME280;10199;48.850;8.924;2024-03-17T00:55:05;97782.47;;;4.08;100.00
20079;BME280;10199;48.850;8.924;2024-03-17T00:57:34;97915.47;;;4.91;100.00
20079;BME280;10199;48.850;8.924;2024-03-17T01:00:01;97919.91;;;4.91;100.00
20079;BME280;10199;48.850;8.924;2024-03-17T01:02:28;97877.72;;;4.65;100.00
20079;BME280;10199;48.850;8.924;2024-03-17T01:04:54;97917.00;;;4.84;100.00
20079;BME280;10199;48.850;8.924;2024-03-17T01:07:22;97927.59;;;5.02;100.00
20079;BME280;10199;48.850;8.924;2024-03-17T01:09:48;97928.03;;;4.97;100.00
20079;BME280;10199;48.850;8.924;2024-03-17T01:12:15;97919.06;;;4.90;100.00
20079;BME280;10199;48.850;8.924;2024-03-17T01:14:42;97918.66;;;4.85;100.00
20079;BME280;10199;48.850;8.924;2024-03-17T01:17:09;97913.41;;;4.85;100.00
20079;BME280;10199;48.850;8.924;2024-03-17T01:19:35;97919.06;;;4.80;100.00
20079;BME280;10199;48.850;8.924;2024-03-17T01:22:02;97922.94;;;4.67;100.00
20079;BME280;10199;48.850;8.924;2024-03-17T01:24:29;97752.97;;;3.77;100.00
20079;BME280;10199;48.850;8.924;2024-03-17T01:26:57;97871.78;;;4.43;100.00
20079;BME280;10199;48.850;8.924;2024-03-17T01:29:25;97908.03;;;4.77;100.00
20079;BME280;10199;48.850;8.924;2024-03-17T01:31:53;97908.06;;;4.67;100.00
20079;BME280;10199;48.850;8.924;2024-03-17T01:34:22;97909.44;;;4.71;100.00
20079;BME280;10199;48.850;8.924;2024-03-17T01:36:48;97904.44;;;4.97;100.00
20079;BME280;10199;48.850;8.924;2024-03-17T01:39:15;97893.00;;;4.98;100.00
20079;BME280;10199;48.850;8.924;2024-03-17T01:41:42;97892.44;;;4.95;100.00
20079;BME280;10199;48.850;8.924;2024-03-17T01:44:21;97896.31;;;4.71;100.00
20079;BME280;10199;48.850;8.924;2024-03-17T01:46:48;97893.28;;;4.86;100.00
20079;BME280;10199;48.850;8.924;2024-03-17T01:49:16;97888.72;;;4.88;100.00
20079;BME280;10199;48.850;8.924;2024-03-17T01:51:43;97889.41;;;4.80;100.00
20079;BME280;10199;48.850;8.924;2024-03-17T01:54:11;97857.88;;;4.53;100.00
20079;BME280;10199;48.850;8.924;2024-03-17T01:56:38;97831.53;;;4.44;100.00
20079;BME280;10199;48.850;8.924;2024-03-17T01:59:07;97846.00;;;4.48;100.00
20079;BME280;10199;48.850;8.924;2024-03-17T02:01:33;97875.91;;;4.85;100.00
20079;BME280;10199;48.850;8.924;2024-03-17T02:04:01;97871.06;;;4.80;100.00
20079;BME280;10199;48.850;8.924;2024-03-17T02:06:28;97824.22;;;4.67;100.00
20079;BME280;10199;48.850;8.924;2024-03-17T02:08:56;97870.66;;;4.85;100.00
20079;BME280;10199;48.850;8.924;2024-03-17T02:11:25;97866.94;;;4.87;100.00
20079;BME280;10199;48.850;8.924;2024-03-17T02:13:53;97871.91;;;4.90;100.00
20079;BME280;10199;48.850;8.924;2024-03-17T02:16:19;97861.00;;;4.85;100.00
20079;BME280;10199;48.850;8.924;2024-03-17T02:18:47;97847.09;;;4.65;100.00
20079;BME280;10199;48.850;8.924;2024-03-17T02:21:13;97857.97;;;4.90;100.00
20079;BME280;10199;48.850;8.924;2024-03-17T02:23:42;97612.81;;;3.36;100.00
20079;BME280;10199;48.850;8.924;2024-03-17T02:26:09;97857.41;;;4.96;100.00
20079;BME280;10199;48.850;8.924;2024-03-17T02:28:40;97858.56;;;4.64;100.00
20079;BME280;10199;48.850;8.924;2024-03-17T02:31:08;97871.78;;;4.63;100.00
20079;BME280;10199;48.850;8.924;2024-03-17T02:33:36;97911.63;;;4.57;100.00
20079;BME280;10199;48.850;8.924;2024-03-17T02:36:03;97852.75;;;4.70;100.00
20079;BME280;10199;48.850;8.924;2024-03-17T02:38:33;97839.81;;;4.59;100.00
20079;BME280;10199;48.850;8.924;2024-03-17T02:41:19;97827.41;;;4.52;100.00
20079;BME280;10199;48.850;8.924;2024-03-17T02:43:46;97845.56;;;4.72;100.00
20079;BME280;10199;48.850;8.924;2024-03-17T02:46:14;97789.91;;;4.51;100.00
20079;BME280;10199;48.850;8.924;2024-03-17T02:48:41;97791.00;;;4.29;100.00
20079;BME280;10199;48.850;8.924;2024-03-17T02:51:11;97777.22;;;4.18;100.00
20079;BME280;10199;48.850;8.924;2024-03-17T02:53:40;97831.66;;;4.62;100.00
20079;BME280;10199;48.850;8.924;2024-03-17T02:56:08;97835.25;;;4.61;100.00
20079;BME280;10199;48.850;8.924;2024-03-17T02:58:37;97829.59;;;4.66;100.00
20079;BME280;10199;48.850;8.924;2024-03-17T03:01:05;97834.84;;;4.56;100.00
20079;BME280;10199;48.850;8.924;2024-03-17T03:03:33;97844.22;;;4.59;100.00
20079;BME280;10199;48.850;8.924;2024-03-17T03:06:00;97842.44;;;4.50;100.00
20079;BME280;10199;48.850;8.924;2024-03-17T03:08:30;97840.22;;;4.35;100.00
20079;BME280;10199;48.850;8.924;2024-03-17T03:10:56;97810.56;;;4.25;100.00
20079;BME280;10199;48.850;8.924;2024-03-17T03:13:24;97839.69;;;4.41;100.00
20079;BME280;10199;48.850;8.924;2024-03-17T03:15:52;97835.69;;;4.47;100.00
20079;BME280;10199;48.850;8.924;2024-03-17T03:18:19;97833.19;;;4.36;100.00
20079;BME280;10199;48.850;8.924;2024-03-17T03:20:50;97772.38;;;3.74;100.00
20079;BME280;10199;48.850;8.924;2024-03-17T03:23:17;97832.91;;;4.29;100.00
20079;BME280;10199;48.850;8.924;2024-03-17T03:25:44;97829.56;;;3.98;100.00
20079;BME280;10199;48.850;8.924;2024-03-17T03:28:12;97829.84;;;4.05;100.00
20079;BME280;10199;48.850;8.924;2024-03-17T03:30:39;97737.63;;;3.43;100.00
20079;BME280;10199;48.850;8.924;2024-03-17T03:33:08;97835.22;;;4.13;100.00
20079;BME280;10199;48.850;8.924;2024-03-17T03:35:35;97806.28;;;4.05;100.00
20079;BME280;10199;48.850;8.924;2024-03-17T03:38:02;97785.22;;;4.06;100.00
20079;BME280;10199;48.850;8.924;2024-03-17T03:40:29;97824.91;;;4.31;100.00
20079;BME280;10199;48.850;8.924;2024-03-17T03:42:58;97748.03;;;3.83;100.00
20079;BME280;10199;48.850;8.924;2024-03-17T03:45:25;97744.56;;;3.73;100.00
20079;BME280;10199;48.850;8.924;2024-03-17T03:47:52;97823.53;;;4.17;100.00
20079;BME280;10199;48.850;8.924;2024-03-17T03:50:21;97833.56;;;4.12;100.00
20079;BME280;10199;48.850;8.924;2024-03-17T03:52:48;97832.47;;;4.24;100.00
20079;BME280;10199;48.850;8.924;2024-03-17T03:55:16;97834.00;;;4.27;100.00
20079;BME280;10199;48.850;8.924;2024-03-17T03:57:44;97825.72;;;4.12;100.00
20079;BME280;10199;48.850;8.924;2024-03-17T04:00:13;97825.72;;;4.12;100.00
20079;BME280;10199;48.850;8.924;2024-03-17T04:02:42;97741.44;;;3.30;100.00
20079;BME280;10199;48.850;8.924;2024-03-17T04:05:10;97831.09;;;4.01;100.00
20079;BME280;10199;48.850;8.924;2024-03-17T04:07:38;97823.66;;;4.15;100.00
20079;BME280;10199;48.850;8.924;2024-03-17T04:10:06;97827.38;;;4.13;100.00
20079;BME280;10199;48.850;8.924;2024-03-17T04:12:33;97592.16;;;2.44;100.00
20079;BME280;10199;48.850;8.924;2024-03-17T04:15:01;97814.13;;;3.95;100.00
20079;BME280;10199;48.850;8.924;2024-03-17T04:17:28;97564.53;;;2.51;100.00
20079;BME280;10199;48.850;8.924;2024-03-17T04:19:55;97823.53;;;4.17;100.00
20079;BME280;10199;48.850;8.924;2024-03-17T04:22:22;97838.25;;;4.18;100.00
20079;BME280;10199;48.850;8.924;2024-03-17T04:24:51;97819.53;;;4.13;100.00
20079;BME280;10199;48.850;8.924;2024-03-17T04:27:20;97815.25;;;4.12;100.00
20079;BME280;10199;48.850;8.924;2024-03-17T04:29:47;97822.41;;;4.00;100.00
20079;BME280;10199;48.850;8.924;2024-03-17T04:32:14;97813.47;;;4.03;100.00
20079;BME280;10199;48.850;8.924;2024-03-17T04:34:42;97813.28;;;3.85;100.00
20079;BME280;10199;48.850;8.924;2024-03-17T04:37:10;97823.78;;;3.95;100.00
20079;BME280;10199;48.850;8.924;2024-03-17T04:39:38;97819.09;;;3.89;100.00
20079;BME280;10199;48.850;8.924;2024-03-17T04:42:06;97814.81;;;3.88;100.00
20079;BME280;10199;48.850;8.924;2024-03-17T04:44:33;97782.97;;;3.54;100.00
20079;BME280;10199;48.850;8.924;2024-03-17T04:47:01;97720.00;;;2.86;100.00
20079;BME280;10199;48.850;8.924;2024-03-17T04:49:34;97819.84;;;3.60;100.00
20079;BME280;10199;48.850;8.924;2024-03-17T04:52:02;97825.06;;;3.50;100.00
20079;BME280;10199;48.850;8.924;2024-03-17T04:54:31;97787.63;;;3.50;100.00
20079;BME280;10199;48.850;8.924;2024-03-17T04:56:58;97792.16;;;3.48;100.00
20079;BME280;10199;48.850;8.924;2024-03-17T04:59:35;97784.31;;;3.48;100.00
20079;BME280;10199;48.850;8.924;2024-03-17T05:02:04;97790.19;;;3.40;100.00
20079;BME280;10199;48.850;8.924;2024-03-17T05:04:34;97717.00;;;2.91;100.00
20079;BME280;10199;48.850;8.924;2024-03-17T05:07:01;97821.69;;;3.39;100.00
20079;BME280;10199;48.850;8.924;2024-03-17T05:09:28;97832.84;;;3.41;100.00
20079;BME280;10199;48.850;8.924;2024-03-17T05:11:55;97831.59;;;3.35;100.00
20079;BME280;10199;48.850;8.924;2024-03-17T05:14:22;97825.69;;;3.43;100.00
20079;BME280;10199;48.850;8.924;2024-03-17T05:16:52;97802.88;;;3.14;100.00
20079;BME280;10199;48.850;8.924;2024-03-17T05:19:19;97829.66;;;3.37;100.00
20079;BME280;10199;48.850;8.924;2024-03-17T05:21:47;97753.59;;;3.00;100.00
20079;BME280;10199;48.850;8.924;2024-03-17T05:24:14;97830.16;;;3.52;100.00
20079;BME280;10199;48.850;8.924;2024-03-17T05:26:41;97799.03;;;3.49;100.00
20079;BME280;10199;48.850;8.924;2024-03-17T05:29:09;97821.56;;;3.80;100.00
20079;BME280;10199;48.850;8.924;2024-03-17T05:31:38;97830.88;;;3.64;100.00
20079;BME280;10199;48.850;8.924;2024-03-17T05:34:07;97742.44;;;2.98;100.00
20079;BME280;10199;48.850;8.924;2024-03-17T05:36:39;97812.16;;;3.59;100.00
20079;BME280;10199;48.850;8.924;2024-03-17T05:39:06;97820.81;;;3.59;100.00
20079;BME280;10199;48.850;8.924;2024-03-17T05:41:33;97827.28;;;3.55;100.00
20079;BME280;10199;48.850;8.924;2024-03-17T05:44:01;97602.56;;;1.83;100.00
20079;BME280;10199;48.850;8.924;2024-03-17T05:46:29;97831.06;;;3.41;100.00
20079;BME280;10199;48.850;8.924;2024-03-17T05:49:01;97826.34;;;3.35;100.00
20079;BME280;10199;48.850;8.924;2024-03-17T05:51:34;97836.16;;;3.43;100.00
20079;BME280;10199;48.850;8.924;2024-03-17T05:58:00;97823.97;;;3.53;100.00
20079;BME280;10199;48.850;8.924;2024-03-17T06:00:27;97820.28;;;3.65;100.00
20079;BME280;10199;48.850;8.924;2024-03-17T06:03:02;97777.31;;;3.48;100.00
20079;BME280;10199;48.850;8.924;2024-03-17T06:05:31;97819.63;;;3.82;100.00
20079;BME280;10199;48.850;8.924;2024-03-17T06:08:00;97608.94;;;2.21;100.00
20079;BME280;10199;48.850;8.924;2024-03-17T06:10:28;97821.53;;;3.71;100.00
20079;BME280;10199;48.850;8.924;2024-03-17T06:12:56;97822.91;;;3.65;100.00
20079;BME280;10199;48.850;8.924;2024-03-17T06:15:23;97791.63;;;3.54;100.00
20079;BME280;10199;48.850;8.924;2024-03-17T06:17:50;97806.66;;;3.62;100.00
20079;BME280;10199;48.850;8.924;2024-03-17T06:20:18;97667.22;;;2.92;100.00
20079;BME280;10199;48.850;8.924;2024-03-17T06:22:45;97818.00;;;4.10;100.00
20079;BME280;10199;48.850;8.924;2024-03-17T06:25:14;97819.41;;;4.43;100.00
20079;BME280;10199;48.850;8.924;2024-03-17T06:27:42;97591.59;;;2.81;100.00
20079;BME280;10199;48.850;8.924;2024-03-17T06:30:11;97686.75;;;3.76;100.00
20079;BME280;10199;48.850;8.924;2024-03-17T06:32:40;97818.28;;;4.65;100.00
20079;BME280;10199;48.850;8.924;2024-03-17T06:35:11;97559.16;;;2.83;100.00
20079;BME280;10199;48.850;8.924;2024-03-17T06:37:41;97717.41;;;4.32;100.00
20079;BME280;10199;48.850;8.924;2024-03-17T06:40:11;97570.44;;;3.61;100.00
20079;BME280;10199;48.850;8.924;2024-03-17T06:42:41;97855.00;;;5.12;100.00
20079;BME280;10199;48.850;8.924;2024-03-17T06:45:09;97753.19;;;5.07;100.00
20079;BME280;10199;48.850;8.924;2024-03-17T06:47:39;97819.72;;;5.71;100.00
20079;BME280;10199;48.850;8.924;2024-03-17T06:50:07;97810.47;;;6.22;100.00
20079;BME280;10199;48.850;8.924;2024-03-17T06:52:39;97538.66;;;4.67;100.00
20079;BME280;10199;48.850;8.924;2024-03-17T06:55:07;97766.38;;;5.98;100.00
20079;BME280;10199;48.850;8.924;2024-03-17T06:57:37;97809.84;;;6.89;100.00
20079;BME280;10199;48.850;8.924;2024-03-17T07:00:07;97803.28;;;7.53;98.99
20079;BME280;10199;48.850;8.924;2024-03-17T07:02:40;97605.25;;;5.81;98.69
20079;BME280;10199;48.850;8.924;2024-03-17T07:05:11;97806.72;;;7.46;98.20
20079;BME280;10199;48.850;8.924;2024-03-17T07:07:41;97800.63;;;7.45;97.88
20079;BME280;10199;48.850;8.924;2024-03-17T07:10:08;97804.63;;;7.23;98.19
20079;BME280;10199;48.850;8.924;2024-03-17T07:12:37;97754.84;;;7.30;97.11
20079;BME280;10199;48.850;8.924;2024-03-17T07:15:06;97796.75;;;8.24;92.92
20079;BME280;10199;48.850;8.924;2024-03-17T07:17:49;97701.16;;;7.65;93.77
20079;BME280;10199;48.850;8.924;2024-03-17T07:20:16;97798.28;;;8.35;94.08
20079;BME280;10199;48.850;8.924;2024-03-17T07:22:43;97681.13;;;8.13;91.27
20079;BME280;10199;48.850;8.924;2024-03-17T07:25:13;97802.88;;;8.98;91.48
20079;BME280;10199;48.850;8.924;2024-03-17T07:27:46;97793.31;;;8.88;91.68
20079;BME280;10199;48.850;8.924;2024-03-17T07:30:14;97745.16;;;9.03;91.20
20079;BME280;10199;48.850;8.924;2024-03-17T07:32:41;97796.78;;;9.52;89.44
20079;BME280;10199;48.850;8.924;2024-03-17T07:35:11;97793.84;;;9.39;87.93
20079;BME280;10199;48.850;8.924;2024-03-17T07:37:40;97804.78;;;9.75;89.17
20079;BME280;10199;48.850;8.924;2024-03-17T07:40:08;97798.78;;;9.42;88.81
20079;BME280;10199;48.850;8.924;2024-03-17T07:42:36;97790.75;;;9.27;88.21
20079;BME280;10199;48.850;8.924;2024-03-17T07:45:04;97660.72;;;8.23;90.60
20079;BME280;10199;48.850;8.924;2024-03-17T07:47:36;97753.13;;;8.70;91.08
20079;BME280;10199;48.850;8.924;2024-03-17T07:50:05;97710.25;;;8.84;89.90
20079;BME280;10199;48.850;8.924;2024-03-17T07:52:32;97798.56;;;9.13;90.65
20079;BME280;10199;48.850;8.924;2024-03-17T07:55:00;97747.13;;;9.01;90.31
20079;BME280;10199;48.850;8.924;2024-03-17T07:57:28;97783.56;;;9.13;90.68
20079;BME280;10199;48.850;8.924;2024-03-17T07:59:55;97785.22;;;9.62;90.69
20079;BME280;10199;48.850;8.924;2024-03-17T08:02:22;97723.13;;;9.66;86.41
20079;BME280;10199;48.850;8.924;2024-03-17T08:04:50;97787.03;;;9.92;88.44
20079;BME280;10199;48.850;8.924;2024-03-17T08:07:17;97793.91;;;10.01;89.35
20079;BME280;10199;48.850;8.924;2024-03-17T08:09:47;97760.28;;;9.64;87.32
20079;BME280;10199;48.850;8.924;2024-03-17T08:12:17;97669.69;;;9.24;90.24
20079;BME280;10199;48.850;8.924;2024-03-17T08:14:44;97624.91;;;8.69;88.83
20079;BME280;10199;48.850;8.924;2024-03-17T08:17:13;97787.09;;;9.84;88.85
20079;BME280;10199;48.850;8.924;2024-03-17T08:19:40;97795.41;;;10.04;89.28
20079;BME280;10199;48.850;8.924;2024-03-17T08:22:08;97791.69;;;9.90;89.21
20079;BME280;10199;48.850;8.924;2024-03-17T08:24:35;97800.28;;;10.15;89.97
20079;BME280;10199;48.850;8.924;2024-03-17T08:27:05;97753.22;;;9.48;89.54
20079;BME280;10199;48.850;8.924;2024-03-17T08:29:32;97578.88;;;9.11;88.49
20079;BME280;10199;48.850;8.924;2024-03-17T08:32:00;97797.00;;;10.44;87.70
20079;BME280;10199;48.850;8.924;2024-03-17T08:34:27;97800.00;;;10.41;88.26
20079;BME280;10199;48.850;8.924;2024-03-17T08:36:54;97657.69;;;9.99;86.17
20079;BME280;10199;48.850;8.924;2024-03-17T08:39:23;97732.44;;;10.07;84.79
20079;BME280;10199;48.850;8.924;2024-03-17T08:41:50;97813.38;;;10.62;86.54
20079;BME280;10199;48.850;8.924;2024-03-17T08:44:18;97528.59;;;8.81;86.23
20079;BME280;10199;48.850;8.924;2024-03-17T08:46:44;97775.78;;;10.52;84.32
20079;BME280;10199;48.850;8.924;2024-03-17T08:49:11;97715.09;;;10.05;84.17
20079;BME280;10199;48.850;8.924;2024-03-17T08:51:38;97775.78;;;10.52;81.59
20079;BME280;10199;48.850;8.924;2024-03-17T08:54:05;97627.25;;;10.26;82.02
20079;BME280;10199;48.850;8.924;2024-03-17T08:56:33;97777.78;;;10.50;80.67
20079;BME280;10199;48.850;8.924;2024-03-17T08:59:01;97751.13;;;10.29;81.09
20079;BME280;10199;48.850;8.924;2024-03-17T09:01:28;97659.97;;;10.25;81.00
20079;BME280;10199;48.850;8.924;2024-03-17T09:03:55;97764.19;;;10.53;81.12
20079;BME280;10199;48.850;8.924;2024-03-17T09:06:26;97723.53;;;10.54;77.73
20079;BME280;10199;48.850;8.924;2024-03-17T09:08:55;97762.44;;;11.71;74.95
20079;BME280;10199;48.850;8.924;2024-03-17T09:11:22;97757.78;;;11.00;75.91
20079;BME280;10199;48.850;8.924;2024-03-17T09:13:54;97721.53;;;10.71;77.43
20079;BME280;10199;48.850;8.924;2024-03-17T09:16:21;97758.16;;;10.97;80.08
20079;BME280;10199;48.850;8.924;2024-03-17T09:18:50;97638.25;;;10.81;77.83
20079;BME280;10199;48.850;8.924;2024-03-17T09:21:20;97761.00;;;11.10;79.66
20079;BME280;10199;48.850;8.924;2024-03-17T09:23:51;97704.13;;;11.06;77.59
20079;BME280;10199;48.850;8.924;2024-03-17T09:26:18;97755.34;;;11.13;77.33
20079;BME280;10199;48.850;8.924;2024-03-17T09:28:45;97758.75;;;11.36;76.75
20079;BME280;10199;48.850;8.924;2024-03-17T09:31:14;97753.41;;;11.07;70.66
20079;BME280;10199;48.850;8.924;2024-03-17T09:33:41;97754.41;;;11.06;73.59
20079;BME280;10199;48.850;8.924;2024-03-17T09:36:09;97751.38;;;11.68;71.21
20079;BME280;10199;48.850;8.924;2024-03-17T09:38:37;97766.75;;;10.99;72.31
20079;BME280;10199;48.850;8.924;2024-03-17T09:41:05;97769.75;;;11.10;74.12
20079;BME280;10199;48.850;8.924;2024-03-17T09:43:34;97684.88;;;10.82;74.77
20079;BME280;10199;48.850;8.924;2024-03-17T09:46:02;97764.78;;;11.30;73.90
20079;BME280;10199;48.850;8.924;2024-03-17T09:48:31;97758.34;;;11.10;73.59
20079;BME280;10199;48.850;8.924;2024-03-17T09:50:59;97754.75;;;11.91;70.03
20079;BME280;10199;48.850;8.924;2024-03-17T09:53:28;97751.09;;;12.13;66.29
20079;BME280;10199;48.850;8.924;2024-03-17T09:55:58;97748.13;;;12.02;67.57
20079;BME280;10199;48.850;8.924;2024-03-17T09:58:27;97743.81;;;12.01;70.67
20079;BME280;10199;48.850;8.924;2024-03-17T10:00:54;97757.94;;;11.87;72.16
20079;BME280;10199;48.850;8.924;2024-03-17T10:03:42;97739.53;;;12.00;70.19
20079;BME280;10199;48.850;8.924;2024-03-17T10:06:11;97708.84;;;11.55;67.35
20079;BME280;10199;48.850;8.924;2024-03-17T10:08:43;97741.09;;;11.94;72.18
20079;BME280;10199;48.850;8.924;2024-03-17T10:11:21;97743.84;;;11.35;71.59
20079;BME280;10199;48.850;8.924;2024-03-17T10:14:00;97762.72;;;11.03;72.99
20079;BME280;10199;48.850;8.924;2024-03-17T10:16:28;97736.63;;;11.00;73.63
20079;BME280;10199;48.850;8.924;2024-03-17T10:19:08;97750.19;;;11.85;73.48
20079;BME280;10199;48.850;8.924;2024-03-17T10:21:36;97749.28;;;11.78;74.08
20079;BME280;10199;48.850;8.924;2024-03-17T10:24:08;97702.47;;;11.49;73.35
20079;BME280;10199;48.850;8.924;2024-03-17T10:26:49;97653.09;;;10.97;73.41
20079;BME280;10199;48.850;8.924;2024-03-17T10:29:23;97732.19;;;11.66;74.17
20079;BME280;10199;48.850;8.924;2024-03-17T10:31:52;97754.75;;;12.12;69.42
20079;BME280;10199;48.850;8.924;2024-03-17T10:34:21;97599.50;;;11.10;70.65
20079;BME280;10199;48.850;8.924;2024-03-17T10:36:50;97763.63;;;11.69;68.82
20079;BME280;10199;48.850;8.924;2024-03-17T10:39:23;97613.66;;;11.02;69.03
20079;BME280;10199;48.850;8.924;2024-03-17T10:41:57;97761.69;;;11.92;70.57
20079;BME280;10199;48.850;8.924;2024-03-17T10:44:25;97754.22;;;12.17;68.35
20079;BME280;10199;48.850;8.924;2024-03-17T10:46:53;97755.13;;;12.09;70.78
20079;BME280;10199;48.850;8.924;2024-03-17T10:49:24;97761.28;;;11.59;69.54
20079;BME280;10199;48.850;8.924;2024-03-17T10:51:57;97743.91;;;11.57;69.37
20079;BME280;10199;48.850;8.924;2024-03-17T10:54:25;97757.88;;;11.80;70.27
20079;BME280;10199;48.850;8.924;2024-03-17T10:56:55;97714.44;;;12.38;70.81
20079;BME280;10199;48.850;8.924;2024-03-17T10:59:31;97753.22;;;12.18;68.80
20079;BME280;10199;48.850;8.924;2024-03-17T11:02:17;97748.50;;;11.99;70.06
20079;BME280;10199;48.850;8.924;2024-03-17T11:04:51;97748.47;;;11.63;69.60
20079;BME280;10199;48.850;8.924;2024-03-17T11:07:18;97594.31;;;11.02;68.73
20079;BME280;10199;48.850;8.924;2024-03-17T11:09:48;97749.81;;;12.24;68.03
20079;BME280;10199;48.850;8.924;2024-03-17T11:12:41;97692.13;;;11.90;70.85
20079;BME280;10199;48.850;8.924;2024-03-17T11:15:35;97744.81;;;12.15;72.27
20079;BME280;10199;48.850;8.924;2024-03-17T11:18:33;97742.59;;;12.18;69.58
20079;BME280;10199;48.850;8.924;2024-03-17T11:21:04;97629.81;;;11.58;70.77
20079;BME280;10199;48.850;8.924;2024-03-17T11:23:37;97736.50;;;11.67;74.15
20079;BME280;10199;48.850;8.924;2024-03-17T11:26:05;97728.25;;;12.12;72.03
20079;BME280;10199;48.850;8.924;2024-03-17T11:28:46;97729.63;;;12.08;68.62
20079;BME280;10199;48.850;8.924;2024-03-17T11:31:38;97721.63;;;12.44;73.63
20079;BME280;10199;48.850;8.924;2024-03-17T11:34:30;97718.38;;;12.06;73.34
20079;BME280;10199;48.850;8.924;2024-03-17T11:37:01;97717.53;;;12.21;74.47
20079;BME280;10199;48.850;8.924;2024-03-17T11:39:52;97719.31;;;12.91;70.30
20079;BME280;10199;48.850;8.924;2024-03-17T11:42:23;97721.78;;;12.15;71.22
20079;BME280;10199;48.850;8.924;2024-03-17T11:44:57;97684.81;;;11.92;74.37
20079;BME280;10199;48.850;8.924;2024-03-17T11:47:36;97719.03;;;12.30;75.15
20079;BME280;10199;48.850;8.924;2024-03-17T11:50:04;97637.28;;;11.91;75.92
20079;BME280;10199;48.850;8.924;2024-03-17T11:52:33;97713.53;;;12.10;72.40
20079;BME280;10199;48.850;8.924;2024-03-17T11:54:59;97707.88;;;12.62;71.05
20079;BME280;10199;48.850;8.924;2024-03-17T11:57:27;97706.78;;;12.29;70.76
20079;BME280;10199;48.850;8.924;2024-03-17T11:59:54;97705.56;;;12.53;70.75
20079;BME280;10199;48.850;8.924;2024-03-17T12:02:22;97702.41;;;12.98;69.30
20079;BME280;10199;48.850;8.924;2024-03-17T12:04:49;97693.97;;;12.32;71.10
20079;BME280;10199;48.850;8.924;2024-03-17T12:07:17;97617.66;;;11.28;70.92
20079;BME280;10199;48.850;8.924;2024-03-17T12:09:45;97702.47;;;11.85;72.09
20079;BME280;10199;48.850;8.924;2024-03-17T12:12:17;97691.81;;;12.42;72.01
20079;BME280;10199;48.850;8.924;2024-03-17T12:14:43;97667.06;;;11.93;71.31
20079;BME280;10199;48.850;8.924;2024-03-17T12:17:11;97611.50;;;11.63;70.86
20079;BME280;10199;48.850;8.924;2024-03-17T12:19:39;97688.94;;;12.16;70.80
20079;BME280;10199;48.850;8.924;2024-03-17T12:22:08;97690.31;;;12.61;70.50
20079;BME280;10199;48.850;8.924;2024-03-17T12:24:35;97685.13;;;12.25;69.50
20079;BME280;10199;48.850;8.924;2024-03-17T12:27:05;97617.97;;;11.97;69.68
20079;BME280;10199;48.850;8.924;2024-03-17T12:29:33;97683.53;;;12.87;68.23
20079;BME280;10199;48.850;8.924;2024-03-17T12:32:03;97676.84;;;12.35;67.85
20079;BME280;10199;48.850;8.924;2024-03-17T12:34:32;97540.56;;;11.59;68.75
20079;BME280;10199;48.850;8.924;2024-03-17T12:37:00;97643.13;;;12.07;67.91
20079;BME280;10199;48.850;8.924;2024-03-17T12:39:27;97664.16;;;12.30;68.02
20079;BME280;10199;48.850;8.924;2024-03-17T12:42:03;97663.78;;;12.61;66.78
20079;BME280;10199;48.850;8.924;2024-03-17T12:44:31;97658.03;;;12.30;69.28
20079;BME280;10199;48.850;8.924;2024-03-17T12:47:00;97654.47;;;12.16;68.60
20079;BME280;10199;48.850;8.924;2024-03-17T12:49:27;97654.75;;;12.56;67.77
20079;BME280;10199;48.850;8.924;2024-03-17T12:51:54;97651.34;;;12.62;68.20
20079;BME280;10199;48.850;8.924;2024-03-17T12:54:23;97659.81;;;12.79;67.15
20079;BME280;10199;48.850;8.924;2024-03-17T12:56:51;97653.31;;;12.53;67.36
20079;BME280;10199;48.850;8.924;2024-03-17T12:59:41;97658.31;;;12.69;66.99
20079;BME280;10199;48.850;8.924;2024-03-17T13:02:26;97614.13;;;12.90;66.29
20079;BME280;10199;48.850;8.924;2024-03-17T13:05:10;97657.97;;;12.79;67.51
20079;BME280;10199;48.850;8.924;2024-03-17T13:07:44;97647.28;;;13.00;67.42
20079;BME280;10199;48.850;8.924;2024-03-17T13:10:13;97648.34;;;13.06;67.04
20079;BME280;10199;48.850;8.924;2024-03-17T13:12:41;97646.53;;;12.79;67.71
20079;BME280;10199;48.850;8.924;2024-03-17T13:15:11;97580.09;;;12.65;66.23
20079;BME280;10199;48.850;8.924;2024-03-17T13:17:38;97623.50;;;12.86;67.29